sensor_id;sensor_type;location;lat;lon;timestamp;pressure;altitude;pressure_sealevel;temperature;humidity
64078;BME280;51039;49.696;10.808;2023-02-19T00:01:35;98679.00;;;8.34;93.66
64078;BME280;51039;49.696;10.808;2023-02-19T00:04:10;98681.34;;;8.29;94.26
64078;BME280;51039;49.696;10.808;2023-02-19T00:06:38;98670.22;;;8.33;93.77
64078;BME280;51039;49.696;10.808;2023-02-19T00:09:04;98674.06;;;8.31;93.58
64078;BME280;51039;49.696;10.808;2023-02-19T00:11:31;98673.06;;;8.32;93.72
64078;BME280;51039;49.696;10.808;2023-02-19T00:13:58;98676.06;;;8.29;93.98
64078;BME280;51039;49.696;10.808;2023-02-19T00:16:31;98681.00;;;8.32;94.24
64078;BME280;51039;49.696;10.808;2023-02-19T00:18:59;98681.00;;;8.32;94.35
64078;BME280;51039;49.696;10.808;2023-02-19T00:21:27;98670.44;;;8.32;94.46
64078;BME280;51039;49.696;10.808;2023-02-19T00:24:00;98671.41;;;8.31;94.56
64078;BME280;51039;49.696;10.808;2023-02-19T00:26:27;98660.22;;;8.29;94.86
64078;BME280;51039;49.696;10.808;2023-02-19T00:28:53;98651.66;;;8.26;95.12
64078;BME280;51039;49.696;10.808;2023-02-19T00:31:23;98653.50;;;8.26;95.34
64078;BME280;51039;49.696;10.808;2023-02-19T00:33:51;98654.66;;;8.23;95.62
64078;BME280;51039;49.696;10.808;2023-02-19T00:36:19;98647.59;;;8.24;95.48
64078;BME280;51039;49.696;10.808;2023-02-19T00:38:44;98639.84;;;8.22;95.58
64078;BME280;51039;49.696;10.808;2023-02-19T00:41:10;98642.00;;;8.19;96.26
64078;BME280;51039;49.696;10.808;2023-02-19T00:46:20;98645.22;;;8.14;97.24
64078;BME280;51039;49.696;10.808;2023-02-19T00:48:47;98632.53;;;8.10;97.74
64078;BME280;51039;49.696;10.808;2023-02-19T00:51:13;98623.81;;;8.09;98.09
64078;BME280;51039;49.696;10.808;2023-02-19T00:53:39;98620.53;;;8.07;98.47
64078;BME280;51039;49.696;10.808;2023-02-19T00:56:05;98627.00;;;8.04;98.68
64078;BME280;51039;49.696;10.808;2023-02-19T00:58:30;98630.16;;;8.00;99.12
64078;BME280;51039;49.696;10.808;2023-02-19T01:00:56;98639.91;;;7.99;99.54
64078;BME280;51039;49.696;10.808;2023-02-19T01:03:21;98632.16;;;7.98;99.62
64078;BME280;51039;49.696;10.808;2023-02-19T01:05:47;98621.13;;;7.94;99.95
64078;BME280;51039;49.696;10.808;2023-02-19T01:08:13;98611.78;;;7.92;100.00
64078;BME280;51039;49.696;10.808;2023-02-19T01:10:38;98603.56;;;7.86;100.00
64078;BME280;51039;49.696;10.808;2023-02-19T01:13:03;98617.88;;;7.92;100.00
64078;BME280;51039;49.696;10.808;2023-02-19T01:15:30;98611.31;;;7.88;100.00
64078;BME280;51039;49.696;10.808;2023-02-19T01:17:57;98612.13;;;7.89;100.00
64078;BME280;51039;49.696;10.808;2023-02-19T01:20:22;98610.50;;;7.88;100.00
64078;BME280;51039;49.696;10.808;2023-02-19T01:22:47;98612.50;;;7.85;100.00
64078;BME280;51039;49.696;10.808;2023-02-19T01:25:12;98605.09;;;7.81;100.00
64078;BME280;51039;49.696;10.808;2023-02-19T01:27:38;98602.28;;;7.82;100.00
64078;BME280;51039;49.696;10.808;2023-02-19T01:30:03;98599.03;;;7.80;100.00
64078;BME280;51039;49.696;10.808;2023-02-19T01:32:29;98580.56;;;7.80;100.00
64078;BME280;51039;49.696;10.808;2023-02-19T01:34:54;98566.38;;;7.81;100.00
64078;BME280;51039;49.696;10.808;2023-02-19T01:37:19;98562.75;;;7.82;100.00
64078;BME280;51039;49.696;10.808;2023-02-19T01:39:46;98576.94;;;7.81;100.00
64078;BME280;51039;49.696;10.808;2023-02-19T01:42:15;98573.19;;;7.76;100.00
64078;BME280;51039;49.696;10.808;2023-02-19T01:47:09;98572.78;;;7.64;100.00
64078;BME280;51039;49.696;10.808;2023-02-19T01:49:36;98569.72;;;7.60;100.00
64078;BME280;51039;49.696;10.808;2023-02-19T01:52:22;98563.81;;;7.58;100.00
64078;BME280;51039;49.696;10.808;2023-02-19T01:54:59;98562.63;;;7.61;100.00
64078;BME280;51039;49.696;10.808;2023-02-19T01:57:29;98568.88;;;7.60;100.00
64078;BME280;51039;49.696;10.808;2023-02-19T02:00:05;98568.94;;;7.52;100.00
64078;BME280;51039;49.696;10.808;2023-02-19T02:02:34;98566.50;;;7.50;100.00
64078;BME280;51039;49.696;10.808;2023-02-19T02:05:00;98559.13;;;7.45;100.00
64078;BME280;51039;49.696;10.808;2023-02-19T02:07:27;98561.28;;;7.42;100.00
64078;BME280;51039;49.696;10.808;2023-02-19T02:10:11;98555.38;;;7.40;100.00
64078;BME280;51039;49.696;10.808;2023-02-19T02:12:48;98543.56;;;7.36;100.00
64078;BME280;51039;49.696;10.808;2023-02-19T02:15:16;98551.47;;;7.36;100.00
64078;BME280;51039;49.696;10.808;2023-02-19T02:23:05;98552.41;;;7.43;100.00
64078;BME280;51039;49.696;10.808;2023-02-19T02:31:00;98535.47;;;7.37;100.00
64078;BME280;51039;49.696;10.808;2023-02-19T02:33:32;98520.19;;;7.33;100.00
64078;BME280;51039;49.696;10.808;2023-02-19T02:36:07;98521.00;;;7.33;100.00
64078;BME280;51039;49.696;10.808;2023-02-19T02:38:38;98525.28;;;7.34;100.00
64078;BME280;51039;49.696;10.808;2023-02-19T02:41:06;98514.75;;;7.34;100.00
64078;BME280;51039;49.696;10.808;2023-02-19T02:43:32;98514.28;;;7.31;100.00
64078;BME280;51039;49.696;10.808;2023-02-19T02:45:57;98518.03;;;7.36;100.00
64078;BME280;51039;49.696;10.808;2023-02-19T02:48:28;98516.84;;;7.39;100.00
64078;BME280;51039;49.696;10.808;2023-02-19T02:53:48;98503.31;;;7.42;100.00
64078;BME280;51039;49.696;10.808;2023-02-19T02:56:38;98506.41;;;7.45;100.00
64078;BME280;51039;49.696;10.808;2023-02-19T02:59:07;98510.88;;;7.45;100.00
64078;BME280;51039;49.696;10.808;2023-02-19T03:01:40;98510.03;;;7.44;100.00
64078;BME280;51039;49.696;10.808;2023-02-19T03:04:30;98521.03;;;7.48;100.00
64078;BME280;51039;49.696;10.808;2023-02-19T03:07:22;98492.03;;;7.48;100.00
64078;BME280;51039;49.696;10.808;2023-02-19T03:09:50;98493.88;;;7.47;100.00
64078;BME280;51039;49.696;10.808;2023-02-19T03:12:16;98498.97;;;7.49;100.00
64078;BME280;51039;49.696;10.808;2023-02-19T03:15:04;98488.25;;;7.51;100.00
64078;BME280;51039;49.696;10.808;2023-02-19T03:17:54;98484.59;;;7.52;100.00
64078;BME280;51039;49.696;10.808;2023-02-19T03:20:43;98480.97;;;7.53;100.00
64078;BME280;51039;49.696;10.808;2023-02-19T03:23:12;98483.78;;;7.51;100.00
64078;BME280;51039;49.696;10.808;2023-02-19T03:25:41;98486.06;;;7.54;100.00
64078;BME280;51039;49.696;10.808;2023-02-19T03:28:26;98480.59;;;7.56;100.00
64078;BME280;51039;49.696;10.808;2023-02-19T03:31:13;98474.69;;;7.54;100.00
64078;BME280;51039;49.696;10.808;2023-02-19T03:33:42;98470.25;;;7.54;100.00
64078;BME280;51039;49.696;10.808;2023-02-19T03:36:11;98482.59;;;7.54;100.00
64078;BME280;51039;49.696;10.808;2023-02-19T03:38:43;98481.41;;;7.56;100.00
64078;BME280;51039;49.696;10.808;2023-02-19T03:43:43;98478.59;;;7.58;100.00
64078;BME280;51039;49.696;10.808;2023-02-19T03:46:20;98482.25;;;7.57;100.00
64078;BME280;51039;49.696;10.808;2023-02-19T03:49:09;98475.00;;;7.59;100.00
64078;BME280;51039;49.696;10.808;2023-02-19T03:51:43;98470.97;;;7.63;100.00
64078;BME280;51039;49.696;10.808;2023-02-19T03:57:15;98465.53;;;7.64;100.00
64078;BME280;51039;49.696;10.808;2023-02-19T04:02:25;98477.34;;;7.69;100.00
64078;BME280;51039;49.696;10.808;2023-02-19T04:07:36;98483.16;;;7.64;100.00
64078;BME280;51039;49.696;10.808;2023-02-19T04:10:06;98481.34;;;7.64;100.00
64078;BME280;51039;49.696;10.808;2023-02-19T04:12:33;98485.78;;;7.64;100.00
64078;BME280;51039;49.696;10.808;2023-02-19T04:15:08;98486.97;;;7.61;100.00
64078;BME280;51039;49.696;10.808;2023-02-19T04:17:38;98480.50;;;7.64;100.00
64078;BME280;51039;49.696;10.808;2023-02-19T04:20:09;98484.81;;;7.65;100.00
64078;BME280;51039;49.696;10.808;2023-02-19T04:22:37;98477.88;;;7.64;100.00
64078;BME280;51039;49.696;10.808;2023-02-19T04:25:04;98476.25;;;7.63;100.00
64078;BME280;51039;49.696;10.808;2023-02-19T04:27:30;98485.16;;;7.62;100.00
64078;BME280;51039;49.696;10.808;2023-02-19T04:29:56;98478.91;;;7.63;100.00
64078;BME280;51039;49.696;10.808;2023-02-19T04:32:22;98492.53;;;7.66;100.00
64078;BME280;51039;49.696;10.808;2023-02-19T04:34:47;98486.25;;;7.67;100.00
64078;BME280;51039;49.696;10.808;2023-02-19T04:37:12;98489.25;;;7.64;100.00
64078;BME280;51039;49.696;10.808;2023-02-19T04:39:38;98497.81;;;7.66;100.00
64078;BME280;51039;49.696;10.808;2023-02-19T04:42:03;98501.09;;;7.69;100.00
64078;BME280;51039;49.696;10.808;2023-02-19T04:44:28;98495.00;;;7.68;100.00
64078;BME280;51039;49.696;10.808;2023-02-19T04:46:54;98495.63;;;7.70;100.00
64078;BME280;51039;49.696;10.808;2023-02-19T04:49:19;98491.97;;;7.71;100.00
64078;BME280;51039;49.696;10.808;2023-02-19T04:51:44;98493.16;;;7.69;100.00
64078;BME280;51039;49.696;10.808;2023-02-19T04:54:10;98500.06;;;7.70;100.00
64078;BME280;51039;49.696;10.808;2023-02-19T04:56:35;98500.06;;;7.70;100.00
64078;BME280;51039;49.696;10.808;2023-02-19T04:59:00;98503.72;;;7.69;100.00
64078;BME280;51039;49.696;10.808;2023-02-19T05:01:25;98498.91;;;7.72;100.00
64078;BME280;51039;49.696;10.808;2023-02-19T05:03:51;98498.72;;;7.74;100.00
64078;BME280;51039;49.696;10.808;2023-02-19T05:06:17;98498.53;;;7.75;100.00
64078;BME280;51039;49.696;10.808;2023-02-19T05:08:42;98492.91;;;7.78;100.00
64078;BME280;51039;49.696;10.808;2023-02-19T05:11:08;98491.06;;;7.79;100.00
64078;BME280;51039;49.696;10.808;2023-02-19T05:13:35;98495.53;;;7.78;100.00
64078;BME280;51039;49.696;10.808;2023-02-19T05:16:05;98493.09;;;7.77;100.00
64078;BME280;51039;49.696;10.808;2023-02-19T05:18:32;98487.97;;;7.75;100.00
64078;BME280;51039;49.696;10.808;2023-02-19T05:21:01;98488.63;;;7.77;100.00
64078;BME280;51039;49.696;10.808;2023-02-19T05:23:26;98484.34;;;7.76;100.00
64078;BME280;51039;49.696;10.808;2023-02-19T05:25:52;98486.19;;;7.76;100.00
64078;BME280;51039;49.696;10.808;2023-02-19T05:28:18;98497.38;;;7.78;100.00
64078;BME280;51039;49.696;10.808;2023-02-19T05:30:48;98494.72;;;7.78;100.00
64078;BME280;51039;49.696;10.808;2023-02-19T05:33:15;98500.81;;;7.78;100.00
64078;BME280;51039;49.696;10.808;2023-02-19T05:35:42;98500.81;;;7.78;100.00
64078;BME280;51039;49.696;10.808;2023-02-19T05:38:10;98499.53;;;7.74;100.00
64078;BME280;51039;49.696;10.808;2023-02-19T05:40:35;98509.72;;;7.77;100.00
64078;BME280;51039;49.696;10.808;2023-02-19T05:43:02;98494.28;;;7.74;100.00
64078;BME280;51039;49.696;10.808;2023-02-19T05:45:27;98512.34;;;7.77;100.00
64078;BME280;51039;49.696;10.808;2023-02-19T05:47:53;98507.28;;;7.76;100.00
64078;BME280;51039;49.696;10.808;2023-02-19T05:50:18;98510.91;;;7.75;100.00
64078;BME280;51039;49.696;10.808;2023-02-19T05:52:43;98510.44;;;7.71;100.00
64078;BME280;51039;49.696;10.808;2023-02-19T05:55:09;98510.81;;;7.68;100.00
64078;BME280;51039;49.696;10.808;2023-02-19T05:57:45;98509.00;;;7.69;100.00
64078;BME280;51039;49.696;10.808;2023-02-19T06:00:13;98515.25;;;7.67;100.00
64078;BME280;51039;49.696;10.808;2023-02-19T06:02:40;98517.88;;;7.67;100.00
64078;BME280;51039;49.696;10.808;2023-02-19T06:05:05;98520.97;;;7.71;100.00
64078;BME280;51039;49.696;10.808;2023-02-19T06:07:31;98537.44;;;7.73;100.00
64078;BME280;51039;49.696;10.808;2023-02-19T06:09:56;98530.53;;;7.72;100.00
64078;BME280;51039;49.696;10.808;2023-02-19T06:12:22;98532.53;;;7.70;100.00
64078;BME280;51039;49.696;10.808;2023-02-19T06:14:48;98532.53;;;7.70;100.00
64078;BME280;51039;49.696;10.808;2023-02-19T06:17:13;98537.63;;;7.72;100.00
64078;BME280;51039;49.696;10.808;2023-02-19T06:19:39;98546.38;;;7.72;100.00
64078;BME280;51039;49.696;10.808;2023-02-19T06:22:04;98542.06;;;7.71;100.00
64078;BME280;51039;49.696;10.808;2023-02-19T06:24:31;98547.72;;;7.68;100.00
64078;BME280;51039;49.696;10.808;2023-02-19T06:26:56;98538.47;;;7.72;100.00
64078;BME280;51039;49.696;10.808;2023-02-19T06:29:22;98550.16;;;7.70;100.00
64078;BME280;51039;49.696;10.808;2023-02-19T06:31:47;98551.00;;;7.70;100.00
64078;BME280;51039;49.696;10.808;2023-02-19T06:34:13;98554.91;;;7.74;100.00
64078;BME280;51039;49.696;10.808;2023-02-19T06:36:38;98555.72;;;7.75;100.00
64078;BME280;51039;49.696;10.808;2023-02-19T06:39:04;98553.91;;;7.75;100.00
64078;BME280;51039;49.696;10.808;2023-02-19T06:41:30;98558.47;;;7.81;100.00
64078;BME280;51039;49.696;10.808;2023-02-19T06:43:58;98553.56;;;7.78;100.00
64078;BME280;51039;49.696;10.808;2023-02-19T06:46:24;98551.56;;;7.80;100.00
64078;BME280;51039;49.696;10.808;2023-02-19T06:48:49;98562.75;;;7.82;100.00
64078;BME280;51039;49.696;10.808;2023-02-19T06:51:16;98559.47;;;7.80;100.00
64078;BME280;51039;49.696;10.808;2023-02-19T06:53:44;98565.38;;;7.82;100.00
64078;BME280;51039;49.696;10.808;2023-02-19T06:56:23;98571.47;;;7.83;100.00
64078;BME280;51039;49.696;10.808;2023-02-19T06:58:55;98579.09;;;7.93;100.00
64078;BME280;51039;49.696;10.808;2023-02-19T07:01:23;98583.88;;;7.97;100.00
64078;BME280;51039;49.696;10.808;2023-02-19T07:03:49;98586.13;;;8.15;99.24
64078;BME280;51039;49.696;10.808;2023-02-19T07:06:16;98594.50;;;8.04;99.05
64078;BME280;51039;49.696;10.808;2023-02-19T07:08:42;98592.75;;;7.96;99.32
64078;BME280;51039;49.696;10.808;2023-02-19T07:11:07;98605.50;;;7.93;99.85
64078;BME280;51039;49.696;10.808;2023-02-19T07:13:32;98594.13;;;7.92;99.54
64078;BME280;51039;49.696;10.808;2023-02-19T07:15:59;98597.56;;;7.93;99.06
64078;BME280;51039;49.696;10.808;2023-02-19T07:18:25;98598.88;;;7.97;98.73
64078;BME280;51039;49.696;10.808;2023-02-19T07:20:51;98598.50;;;8.00;98.55
64078;BME280;51039;49.696;10.808;2023-02-19T07:23:16;98595.50;;;8.03;98.10
64078;BME280;51039;49.696;10.808;2023-02-19T07:25:41;98594.97;;;8.07;97.58
64078;BME280;51039;49.696;10.808;2023-02-19T07:28:06;98609.16;;;8.06;97.82
64078;BME280;51039;49.696;10.808;2023-02-19T07:30:32;98606.06;;;8.03;97.74
64078;BME280;51039;49.696;10.808;2023-02-19T07:32:57;98617.91;;;8.07;97.65
64078;BME280;51039;49.696;10.808;2023-02-19T07:35:22;98616.88;;;8.08;97.82
64078;BME280;51039;49.696;10.808;2023-02-19T07:37:48;98622.16;;;8.08;98.71
64078;BME280;51039;49.696;10.808;2023-02-19T07:40:13;98627.44;;;8.08;99.46
64078;BME280;51039;49.696;10.808;2023-02-19T07:42:38;98621.00;;;8.11;98.96
64078;BME280;51039;49.696;10.808;2023-02-19T07:45:03;98618.34;;;8.11;98.71
64078;BME280;51039;49.696;10.808;2023-02-19T07:47:29;98631.56;;;8.11;98.27
64078;BME280;51039;49.696;10.808;2023-02-19T07:49:54;98620.16;;;8.10;98.81
64078;BME280;51039;49.696;10.808;2023-02-19T07:52:19;98634.53;;;8.07;98.63
64078;BME280;51039;49.696;10.808;2023-02-19T07:54:45;98630.91;;;8.09;98.31
64078;BME280;51039;49.696;10.808;2023-02-19T07:57:10;98641.25;;;8.10;98.19
64078;BME280;51039;49.696;10.808;2023-02-19T07:59:35;98637.47;;;8.13;97.35
64078;BME280;51039;49.696;10.808;2023-02-19T08:02:01;98649.19;;;8.10;97.59
64078;BME280;51039;49.696;10.808;2023-02-19T08:04:45;98655.56;;;8.16;97.57
64078;BME280;51039;49.696;10.808;2023-02-19T08:07:12;98654.56;;;8.17;97.20
64078;BME280;51039;49.696;10.808;2023-02-19T08:09:37;98658.94;;;8.24;97.09
64078;BME280;51039;49.696;10.808;2023-02-19T08:12:02;98667.16;;;8.30;96.77
64078;BME280;51039;49.696;10.808;2023-02-19T08:14:46;98669.31;;;8.41;96.39
64078;BME280;51039;49.696;10.808;2023-02-19T08:17:11;98674.81;;;8.39;96.32
64078;BME280;51039;49.696;10.808;2023-02-19T08:19:37;98666.03;;;8.39;95.58
64078;BME280;51039;49.696;10.808;2023-02-19T08:22:02;98669.81;;;8.44;96.00
64078;BME280;51039;49.696;10.808;2023-02-19T08:24:27;98671.75;;;8.51;95.18
64078;BME280;51039;49.696;10.808;2023-02-19T08:26:53;98678.31;;;8.55;95.43
64078;BME280;51039;49.696;10.808;2023-02-19T08:29:18;98683.75;;;8.53;95.04
64078;BME280;51039;49.696;10.808;2023-02-19T08:31:43;98672.13;;;8.62;94.42
64078;BME280;51039;49.696;10.808;2023-02-19T08:34:08;98687.97;;;8.62;94.21
64078;BME280;51039;49.696;10.808;2023-02-19T08:36:34;98686.13;;;8.78;93.42
64078;BME280;51039;49.696;10.808;2023-02-19T08:38:59;98686.59;;;9.18;92.13
64078;BME280;51039;49.696;10.808;2023-02-19T08:41:24;98693.47;;;9.49;90.92
64078;BME280;51039;49.696;10.808;2023-02-19T08:43:50;98700.84;;;9.53;91.00
64078;BME280;51039;49.696;10.808;2023-02-19T08:46:15;98704.28;;;9.32;91.20
64078;BME280;51039;49.696;10.808;2023-02-19T08:48:40;98705.38;;;9.23;91.23
64078;BME280;51039;49.696;10.808;2023-02-19T08:51:09;98711.41;;;9.17;91.87
64078;BME280;51039;49.696;10.808;2023-02-19T08:53:36;98706.31;;;9.15;91.85
64078;BME280;51039;49.696;10.808;2023-02-19T08:56:10;98714.41;;;9.14;92.04
64078;BME280;51039;49.696;10.808;2023-02-19T08:58:37;98717.28;;;8.97;92.19
64078;BME280;51039;49.696;10.808;2023-02-19T09:01:07;98713.53;;;8.92;92.62
64078;BME280;51039;49.696;10.808;2023-02-19T09:03:34;98723.13;;;8.78;92.92
64078;BME280;51039;49.696;10.808;2023-02-19T09:05:59;98728.41;;;8.78;92.97
64078;BME280;51039;49.696;10.808;2023-02-19T09:08:24;98735.31;;;8.79;93.01
64078;BME280;51039;49.696;10.808;2023-02-19T09:11:00;98732.03;;;8.77;93.42
64078;BME280;51039;49.696;10.808;2023-02-19T09:13:27;98740.22;;;8.67;92.83
64078;BME280;51039;49.696;10.808;2023-02-19T09:15:52;98743.66;;;8.68;93.05
64078;BME280;51039;49.696;10.808;2023-02-19T09:18:18;98746.44;;;8.74;93.27
64078;BME280;51039;49.696;10.808;2023-02-19T09:20:43;98750.81;;;8.82;92.95
64078;BME280;51039;49.696;10.808;2023-02-19T09:23:08;98765.56;;;8.91;92.58
64078;BME280;51039;49.696;10.808;2023-02-19T09:25:33;98751.63;;;8.97;92.17
64078;BME280;51039;49.696;10.808;2023-02-19T09:27:59;98754.09;;;8.99;92.33
64078;BME280;51039;49.696;10.808;2023-02-19T09:30:24;98766.84;;;8.95;92.57
64078;BME280;51039;49.696;10.808;2023-02-19T09:32:49;98762.19;;;8.82;92.99
64078;BME280;51039;49.696;10.808;2023-02-19T09:35:15;98772.03;;;8.74;93.36
64078;BME280;51039;49.696;10.808;2023-02-19T09:37:40;98765.72;;;8.75;93.17
64078;BME280;51039;49.696;10.808;2023-02-19T09:40:06;98760.91;;;8.78;92.95
64078;BME280;51039;49.696;10.808;2023-02-19T09:42:31;98770.28;;;8.81;92.78
64078;BME280;51039;49.696;10.808;2023-02-19T09:44:57;98773.09;;;8.79;93.51
64078;BME280;51039;49.696;10.808;2023-02-19T09:47:28;98780.13;;;8.72;94.07
64078;BME280;51039;49.696;10.808;2023-02-19T09:50:00;98780.28;;;8.71;93.83
64078;BME280;51039;49.696;10.808;2023-02-19T09:55:12;98772.47;;;8.62;94.31
64078;BME280;51039;49.696;10.808;2023-02-19T09:57:40;98769.63;;;8.64;94.29
64078;BME280;51039;49.696;10.808;2023-02-19T10:02:36;98765.56;;;8.91;93.48
64078;BME280;51039;49.696;10.808;2023-02-19T10:05:02;98773.94;;;8.95;93.67
64078;BME280;51039;49.696;10.808;2023-02-19T10:07:39;98782.69;;;8.95;93.40
64078;BME280;51039;49.696;10.808;2023-02-19T10:12:41;98785.22;;;9.33;91.88
64078;BME280;51039;49.696;10.808;2023-02-19T10:15:11;98796.22;;;9.52;90.82
64078;BME280;51039;49.696;10.808;2023-02-19T10:17:42;98804.88;;;9.60;90.65
64078;BME280;51039;49.696;10.808;2023-02-19T10:20:14;98808.16;;;9.62;90.58
64078;BME280;51039;49.696;10.808;2023-02-19T10:22:42;98801.34;;;9.53;90.58
64078;BME280;51039;49.696;10.808;2023-02-19T10:25:11;98801.63;;;9.43;90.98
64078;BME280;51039;49.696;10.808;2023-02-19T10:27:40;98788.66;;;9.49;90.81
64078;BME280;51039;49.696;10.808;2023-02-19T10:30:09;98802.09;;;9.47;90.67
64078;BME280;51039;49.696;10.808;2023-02-19T10:33:01;98804.94;;;9.67;90.21
64078;BME280;51039;49.696;10.808;2023-02-19T10:35:33;98809.81;;;9.85;89.25
64078;BME280;51039;49.696;10.808;2023-02-19T10:38:02;98824.69;;;9.50;92.34
64078;BME280;51039;49.696;10.808;2023-02-19T10:40:30;98826.44;;;9.28;93.76
64078;BME280;51039;49.696;10.808;2023-02-19T10:42:58;98824.78;;;9.41;92.80
64078;BME280;51039;49.696;10.808;2023-02-19T10:48:21;98824.50;;;9.51;93.92
64078;BME280;51039;49.696;10.808;2023-02-19T10:50:51;98840.72;;;9.48;92.41
64078;BME280;51039;49.696;10.808;2023-02-19T10:53:22;98841.78;;;9.83;91.05
64078;BME280;51039;49.696;10.808;2023-02-19T10:59:14;98823.47;;;10.25;90.09
64078;BME280;51039;49.696;10.808;2023-02-19T11:04:19;98820.63;;;10.05;88.45
64078;BME280;51039;49.696;10.808;2023-02-19T11:06:45;98815.72;;;10.02;88.59
64078;BME280;51039;49.696;10.808;2023-02-19T11:09:44;98817.50;;;10.16;88.24
64078;BME280;51039;49.696;10.808;2023-02-19T11:12:03;98825.00;;;10.56;87.75
64078;BME280;51039;49.696;10.808;2023-02-19T11:14:29;98821.06;;;10.73;85.53
64078;BME280;51039;49.696;10.808;2023-02-19T11:16:57;98821.56;;;10.84;85.50
64078;BME280;51039;49.696;10.808;2023-02-19T11:19:38;98826.09;;;10.90;85.55
64078;BME280;51039;49.696;10.808;2023-02-19T11:24:58;98842.63;;;10.42;85.04
64078;BME280;51039;49.696;10.808;2023-02-19T11:27:53;98842.97;;;10.39;83.77
64078;BME280;51039;49.696;10.808;2023-02-19T11:30:32;98833.84;;;10.41;83.70
64078;BME280;51039;49.696;10.808;2023-02-19T11:35:40;98834.28;;;10.67;81.93
64078;BME280;51039;49.696;10.808;2023-02-19T11:38:10;98829.75;;;10.60;82.14
64078;BME280;51039;49.696;10.808;2023-02-19T11:40:44;98843.00;;;10.60;81.40
64078;BME280;51039;49.696;10.808;2023-02-19T12:08:52;98896.78;;;9.73;91.42
64078;BME280;51039;49.696;10.808;2023-02-19T12:16:48;98890.00;;;8.96;96.84
64078;BME280;51039;49.696;10.808;2023-02-19T12:22:19;98875.28;;;9.17;98.15
64078;BME280;51039;49.696;10.808;2023-02-19T12:25:01;98885.25;;;9.30;98.13
64078;BME280;51039;49.696;10.808;2023-02-19T12:33:26;98877.09;;;9.46;97.19
64078;BME280;51039;49.696;10.808;2023-02-19T12:36:33;98882.31;;;9.39;97.92
64078;BME280;51039;49.696;10.808;2023-02-19T12:39:18;98882.84;;;9.50;98.12
64078;BME280;51039;49.696;10.808;2023-02-19T12:45:34;98881.94;;;9.57;98.73
64078;BME280;51039;49.696;10.808;2023-02-19T12:48:17;98880.28;;;9.56;97.71
64078;BME280;51039;49.696;10.808;2023-02-19T12:50:52;98888.03;;;9.88;97.00
64078;BME280;51039;49.696;10.808;2023-02-19T12:53:40;98880.63;;;9.83;96.67
64078;BME280;51039;49.696;10.808;2023-02-19T12:56:12;98880.44;;;9.85;97.89
64078;BME280;51039;49.696;10.808;2023-02-19T12:58:44;98891.75;;;9.93;96.95
64078;BME280;51039;49.696;10.808;2023-02-19T13:01:17;98895.41;;;10.44;96.85
64078;BME280;51039;49.696;10.808;2023-02-19T13:07:05;98890.13;;;10.72;92.39
64078;BME280;51039;49.696;10.808;2023-02-19T13:09:38;98894.59;;;10.65;92.10
64078;BME280;51039;49.696;10.808;2023-02-19T13:12:12;98887.50;;;10.50;90.19
64078;BME280;51039;49.696;10.808;2023-02-19T13:14:43;98882.47;;;10.34;90.90
64078;BME280;51039;49.696;10.808;2023-02-19T13:17:16;98885.75;;;10.21;88.92
64078;BME280;51039;49.696;10.808;2023-02-19T13:19:51;98896.16;;;10.22;86.65
64078;BME280;51039;49.696;10.808;2023-02-19T13:22:44;98889.53;;;10.48;85.31
64078;BME280;51039;49.696;10.808;2023-02-19T13:25:42;98882.28;;;10.57;82.81
64078;BME280;51039;49.696;10.808;2023-02-19T13:36:49;98877.06;;;9.91;83.73
64078;BME280;51039;49.696;10.808;2023-02-19T13:39:15;98874.34;;;9.84;84.33
64078;BME280;51039;49.696;10.808;2023-02-19T13:41:48;98878.91;;;9.75;84.43
64078;BME280;51039;49.696;10.808;2023-02-19T13:44:23;98872.00;;;9.74;86.84
64078;BME280;51039;49.696;10.808;2023-02-19T13:46:51;98888.22;;;9.71;87.66
64078;BME280;51039;49.696;10.808;2023-02-19T13:49:23;98883.84;;;9.78;87.10
64078;BME280;51039;49.696;10.808;2023-02-19T13:52:02;98883.94;;;9.70;87.85
64078;BME280;51039;49.696;10.808;2023-02-19T13:54:48;98895.88;;;9.81;86.83
64078;BME280;51039;49.696;10.808;2023-02-19T13:59:42;98889.19;;;10.00;84.57
64078;BME280;51039;49.696;10.808;2023-02-19T14:04:50;98887.34;;;10.00;82.66
64078;BME280;51039;49.696;10.808;2023-02-19T14:09:46;98890.63;;;10.02;82.14
64078;BME280;51039;49.696;10.808;2023-02-19T14:14:40;98912.03;;;9.86;82.19
64078;BME280;51039;49.696;10.808;2023-02-19T14:25:13;98923.72;;;9.77;82.72
64078;BME280;51039;49.696;10.808;2023-02-19T14:33:15;98941.38;;;9.47;82.81
64078;BME280;51039;49.696;10.808;2023-02-19T14:35:46;98934.38;;;9.54;82.95
64078;BME280;51039;49.696;10.808;2023-02-19T14:38:24;98933.47;;;9.76;82.80
64078;BME280;51039;49.696;10.808;2023-02-19T14:40:54;98934.91;;;9.79;82.23
64078;BME280;51039;49.696;10.808;2023-02-19T14:43:21;98945.50;;;9.64;82.89
64078;BME280;51039;49.696;10.808;2023-02-19T14:45:53;98943.94;;;9.70;82.28
64078;BME280;51039;49.696;10.808;2023-02-19T14:48:24;98942.88;;;9.79;82.51
64078;BME280;51039;49.696;10.808;2023-02-19T14:51:13;98938.13;;;9.74;82.42
64078;BME280;51039;49.696;10.808;2023-02-19T14:53:44;98952.34;;;9.73;82.01
64078;BME280;51039;49.696;10.808;2023-02-19T14:56:17;98948.97;;;9.79;81.73
64078;BME280;51039;49.696;10.808;2023-02-19T14:58:46;98955.72;;;9.97;81.44
64078;BME280;51039;49.696;10.808;2023-02-19T15:01:30;98954.81;;;9.90;81.14
64078;BME280;51039;49.696;10.808;2023-02-19T15:03:56;98967.88;;;9.91;80.48
64078;BME280;51039;49.696;10.808;2023-02-19T15:06:21;98957.09;;;9.93;79.90
64078;BME280;51039;49.696;10.808;2023-02-19T15:08:49;98957.06;;;10.22;80.56
64078;BME280;51039;49.696;10.808;2023-02-19T15:11:19;98944.78;;;10.51;77.89
64078;BME280;51039;49.696;10.808;2023-02-19T15:13:55;98942.63;;;10.61;77.75
64078;BME280;51039;49.696;10.808;2023-02-19T15:16:24;98940.59;;;10.42;77.11
64078;BME280;51039;49.696;10.808;2023-02-19T15:18:53;98949.56;;;10.26;78.77